Somerville, Alabama
Current Conditions -  °F | °C
As of 7:35 PM on Monday 22 Dec 2014 (Local Time) from KHSV Reporting Station
Light Rain Light Rain  
Wind Chill: 52°   Ceiling: 800
Heat Index: 52°   Visibility: 3mi
Dew Point: 48°   Wind: 10mph
Humidity: 88%   Direction: 150°SSE
Pressure: 29.78"   Gusts: NA
Location:  34.47°N, 86.8°W
Report Text: KHSV 230135Z 15009KT 3SM -RA BR BKN008 OVC014 11/09 A2978 RMK AO2 SFC VIS 3 RAB0059 P0005
Loading
Personal Weather Stations






























Interactive Weather Map New forecast layout! Learn more

10-Day Weather Forecast

Advertisements
Track Severe Weather on mobile